Time;durP1;ratioP1;P1;durP2;ratioP2;P2;SDS_P1;SDS_P2;PMS_P1;PMS_P2;Temp;Humidity;BMP_temperature;BMP_pressure;BME280_temperature;BME280_humidity;BME280_pressure;Samples;Min_cycle;Max_cycle;Signal;HPM_P1;HPM_P2
2023/03/08 00:01:29;;;;;;;26.77;20.53;;;;;;;-0.59;100.00;99925.94;5048594;28;20400;-67
2023/03/08 00:03:56;;;;;;;25.47;20.10;;;;;;;-0.61;100.00;99908.91;5049632;28;20027;-67
2023/03/08 00:06:23;;;;;;;28.70;20.90;;;;;;;-0.61;100.00;99910.56;5048951;28;20044;-67
2023/03/08 00:08:48;;;;;;;23.37;19.60;;;;;;;-0.59;100.00;99911.53;5050203;28;20111;-68
2023/03/08 00:11:15;;;;;;;30.60;22.80;;;;;;;-0.56;100.00;99915.94;5049156;28;20542;-67
2023/03/08 00:13:40;;;;;;;26.50;22.07;;;;;;;-0.57;100.00;99915.06;5062124;28;20029;-67
2023/03/08 00:16:09;;;;;;;25.97;20.13;;;;;;;-0.56;100.00;99921.94;5048511;28;20389;-67
2023/03/08 00:18:36;;;;;;;25.90;21.20;;;;;;;-0.57;100.00;99904.88;5047830;28;20440;-67
2023/03/08 00:21:04;;;;;;;26.03;21.03;;;;;;;-0.56;100.00;99913.41;5048004;28;20036;-67
2023/03/08 00:23:30;;;;;;;25.00;20.33;;;;;;;-0.57;100.00;99912.50;5047557;28;20021;-67
2023/03/08 00:25:55;;;;;;;29.23;21.23;;;;;;;-0.57;100.00;99912.50;5048692;28;20083;-67
2023/03/08 00:28:20;;;;;;;25.83;20.37;;;;;;;-0.56;100.00;99919.38;5048544;28;20113;-67
2023/03/08 00:30:57;;;;;;;29.40;22.20;;;;;;;-0.57;100.00;99915.06;5048027;28;20543;-67
2023/03/08 00:33:23;;;;;;;28.33;21.77;;;;;;;-0.56;100.00;99921.94;5048015;28;20049;-67
2023/03/08 00:35:59;;;;;;;28.33;22.27;;;;;;;-0.55;100.00;99912.59;5047692;28;20033;-67
2023/03/08 00:38:25;;;;;;;27.77;21.83;;;;;;;-0.56;100.00;99916.84;5036880;28;20017;-67
2023/03/08 00:40:51;;;;;;;28.27;21.57;;;;;;;-0.56;100.00;99911.75;5048751;28;20035;-67
2023/03/08 00:43:16;;;;;;;30.23;22.80;;;;;;;-0.56;100.00;99916.84;5049061;28;20142;-67
2023/03/08 00:45:42;;;;;;;28.17;21.23;;;;;;;-0.56;100.00;99913.41;5048746;28;20037;-67
2023/03/08 00:48:07;;;;;;;27.07;21.53;;;;;;;-0.59;100.00;99915.78;5049070;28;20155;-67
2023/03/08 00:50:32;;;;;;;28.50;21.93;;;;;;;-0.60;100.00;99909.78;5049696;28;20033;-67
2023/03/08 00:52:57;;;;;;;28.67;22.23;;;;;;;-0.60;100.00;99919.97;5048548;28;20071;-67
2023/03/08 00:55:23;;;;;;;32.77;24.17;;;;;;;-0.62;100.00;99907.16;5048441;28;20024;-67
2023/03/08 00:57:48;;;;;;;32.33;24.37;;;;;;;-0.64;100.00;99902.72;5048261;28;20035;-67
2023/03/08 01:00:14;;;;;;;33.10;23.47;;;;;;;-0.63;100.00;99907.06;5049376;28;20060;-67
2023/03/08 01:02:39;;;;;;;34.27;24.70;;;;;;;-0.63;100.00;99905.38;5048561;28;20032;-67
2023/03/08 01:05:06;;;;;;;32.47;23.90;;;;;;;-0.64;100.00;99903.63;5048496;28;20027;-67
2023/03/08 01:07:32;;;;;;;34.77;25.93;;;;;;;-0.64;100.00;99902.72;5048223;28;20366;-67
2023/03/08 01:09:57;;;;;;;35.03;26.07;;;;;;;-0.63;100.00;99895.19;5048417;28;20405;-67
2023/03/08 01:12:24;;;;;;;39.13;28.73;;;;;;;-0.62;100.00;99896.09;5054350;28;20021;-67
2023/03/08 01:14:49;;;;;;;45.53;28.17;;;;;;;-0.63;100.00;99885.00;5066355;28;20043;-67
2023/03/08 01:17:15;;;;;;;43.73;27.87;;;;;;;-0.63;100.00;99886.69;5047477;28;20021;-67
2023/03/08 01:19:40;;;;;;;42.10;28.60;;;;;;;-0.60;100.00;99881.78;5046373;28;20029;-67
2023/03/08 01:22:05;;;;;;;47.27;29.63;;;;;;;-0.60;100.00;99874.16;5060568;28;20354;-67
2023/03/08 01:24:30;;;;;;;46.33;30.67;;;;;;;-0.59;100.00;99860.63;5054754;28;20473;-67
2023/03/08 01:26:59;;;;;;;46.93;30.13;;;;;;;-0.59;100.00;99863.16;5064027;28;20044;-67
2023/03/08 01:29:25;;;;;;;49.47;31.27;;;;;;;-0.58;100.00;99858.97;5061034;28;20029;-67
2023/03/08 01:31:51;;;;;;;55.40;32.50;;;;;;;-0.56;100.00;99849.78;5067894;28;20058;-67
2023/03/08 01:34:16;;;;;;;49.80;32.63;;;;;;;-0.55;100.00;99851.50;5063679;28;20021;-67
2023/03/08 01:36:42;;;;;;;48.23;31.93;;;;;;;-0.56;100.00;99840.47;5068183;28;20036;-67
2023/03/08 01:39:07;;;;;;;50.77;32.13;;;;;;;-0.53;100.00;99840.66;5064165;28;20465;-67
2023/03/08 01:41:32;;;;;;;50.73;32.53;;;;;;;-0.54;100.00;99833.78;5068391;28;20025;-67
2023/03/08 01:43:58;;;;;;;55.57;32.73;;;;;;;-0.53;100.00;99835.56;5064053;28;20046;-67
2023/03/08 01:46:27;;;;;;;54.33;32.37;;;;;;;-0.53;100.00;99830.47;5068015;28;20028;-67
2023/03/08 01:49:04;;;;;;;52.30;31.67;;;;;;;-0.53;100.00;99834.66;5063943;28;20183;-67
2023/03/08 01:51:45;;;;;;;58.40;33.67;;;;;;;-0.55;100.00;99824.41;5067899;28;20447;-67
2023/03/08 01:54:25;;;;;;;50.78;32.30;;;;;;;-0.52;100.00;99821.19;5063069;28;20386;-67
2023/03/08 01:56:54;;;;;;;60.13;33.03;;;;;;;-0.51;100.00;99826.34;5064093;28;20464;-67
2023/03/08 01:59:21;;;;;;;54.43;33.00;;;;;;;-0.52;100.00;99818.63;5058076;28;20477;-67
2023/03/08 02:01:47;;;;;;;57.90;32.63;;;;;;;-0.52;100.00;99816.94;5063766;28;20044;-67
2023/03/08 02:04:13;;;;;;;56.37;34.83;;;;;;;-0.51;100.00;99823.81;5067513;28;20022;-67
2023/03/08 02:06:38;;;;;;;54.10;32.93;;;;;;;-0.49;100.00;99816.25;5063992;28;20023;-67
2023/03/08 02:09:05;;;;;;;53.67;32.10;;;;;;;-0.50;100.00;99814.50;5067381;28;20103;-67
2023/03/08 02:11:36;;;;;;;60.53;34.43;;;;;;;-0.50;100.00;99814.50;5062874;28;20066;-67
2023/03/08 02:14:01;;;;;;;56.70;33.65;;;;;;;-0.49;100.00;99812.03;5038434;28;20036;-66
2023/03/08 02:16:27;;;;;;;55.60;33.37;;;;;;;-0.46;100.00;99787.53;5050743;28;20033;-66
2023/03/08 02:18:58;;;;;;;57.77;33.33;;;;;;;-0.45;100.00;99796.97;5050897;28;20032;-66
2023/03/08 02:21:25;;;;;;;55.83;32.40;;;;;;;-0.47;100.00;99784.16;5063993;28;20039;-66
2023/03/08 02:23:50;;;;;;;55.33;32.77;;;;;;;-0.45;100.00;99781.69;5070299;28;20071;-66
2023/03/08 02:26:16;;;;;;;54.97;31.57;;;;;;;-0.44;100.00;99773.25;5070098;28;20056;-66
2023/03/08 02:28:42;;;;;;;53.67;32.10;;;;;;;-0.44;100.00;99770.69;5070446;28;20111;-66
2023/03/08 02:31:08;;;;;;;57.60;33.77;;;;;;;-0.43;100.00;99770.78;5069815;28;20532;-66
2023/03/08 02:33:34;;;;;;;52.60;31.70;;;;;;;-0.42;100.00;99767.47;5069830;28;20027;-66
2023/03/08 02:36:01;;;;;;;54.03;31.87;;;;;;;-0.42;100.00;99769.13;5069918;28;20058;-66
2023/03/08 02:38:26;;;;;;;57.33;33.43;;;;;;;-0.42;100.00;99771.69;5070303;28;20150;-66
2023/03/08 02:40:52;;;;;;;54.87;32.00;;;;;;;-0.41;100.00;99758.16;5069505;28;20547;-66
2023/03/08 02:43:18;;;;;;;56.60;33.13;;;;;;;-0.42;100.00;99762.38;5069442;28;20468;-66
2023/03/08 02:45:44;;;;;;;52.13;34.33;;;;;;;-0.41;100.00;99758.16;5070192;28;20287;-67
2023/03/08 02:48:09;;;;;;;54.90;32.93;;;;;;;-0.41;100.00;99747.97;5070976;28;20103;-66
2023/03/08 02:50:38;;;;;;;53.03;32.10;;;;;;;-0.40;100.00;99759.91;5055588;28;20637;-66
2023/03/08 02:53:04;;;;;;;55.17;33.33;;;;;;;-0.39;100.00;99756.56;5058038;28;20048;-66
2023/03/08 02:55:29;;;;;;;53.23;32.93;;;;;;;-0.41;100.00;99758.16;5068792;28;20035;-67
2023/03/08 02:57:54;;;;;;;53.83;32.23;;;;;;;-0.40;100.00;99757.38;5069638;28;20085;-66
2023/03/08 03:00:20;;;;;;;54.07;30.83;;;;;;;-0.40;100.00;99753.16;5070368;28;20063;-66
2023/03/08 03:02:45;;;;;;;51.90;31.00;;;;;;;-0.39;100.00;99746.38;5069720;28;20028;-66
2023/03/08 03:05:11;;;;;;;50.77;32.23;;;;;;;-0.39;100.00;99751.47;5069081;28;20036;-66
2023/03/08 03:07:41;;;;;;;53.83;33.27;;;;;;;-0.40;100.00;99750.63;5069463;28;20031;-66
2023/03/08 03:10:08;;;;;;;54.63;31.13;;;;;;;-0.41;100.00;99745.41;5068078;28;20029;-66
2023/03/08 03:12:34;;;;;;;51.73;31.13;;;;;;;-0.39;100.00;99741.28;5069445;28;20492;-66
2023/03/08 03:15:04;;;;;;;53.23;31.23;;;;;;;-0.38;100.00;99725.25;5053173;28;20036;-66
2023/03/08 03:17:30;;;;;;;48.50;30.70;;;;;;;-0.37;100.00;99729.53;5059248;28;20512;-66
2023/03/08 03:19:55;;;;;;;47.53;30.13;;;;;;;-0.35;100.00;99732.16;5069322;28;20039;-66
2023/03/08 03:22:21;;;;;;;46.57;29.63;;;;;;;-0.37;100.00;99720.25;5069566;28;20016;-66
2023/03/08 03:24:48;;;;;;;45.60;29.13;;;;;;;-0.35;100.00;99712.69;5069175;28;20020;-66
2023/03/08 03:27:14;;;;;;;52.57;32.80;;;;;;;-0.35;100.00;99719.44;5060444;28;20021;-66
2023/03/08 03:29:39;;;;;;;47.10;29.53;;;;;;;-0.36;100.00;99718.59;5063453;28;20484;-66
2023/03/08 03:32:05;;;;;;;48.40;30.67;;;;;;;-0.37;100.00;99701.53;5049118;28;20036;-66
2023/03/08 03:34:30;;;;;;;49.23;30.93;;;;;;;-0.36;100.00;99695.66;5049657;28;20041;-66
2023/03/08 03:36:55;;;;;;;43.07;28.37;;;;;;;-0.39;100.00;99685.28;5058353;28;20039;-66
2023/03/08 03:39:21;;;;;;;41.00;27.27;;;;;;;-0.37;100.00;99683.72;5056102;28;20029;-66
2023/03/08 03:41:46;;;;;;;42.27;28.20;;;;;;;-0.38;100.00;99676.88;5059562;28;20071;-66
2023/03/08 03:44:11;;;;;;;44.77;29.97;;;;;;;-0.38;100.00;99676.88;5049307;28;20456;-67
2023/03/08 03:46:37;;;;;;;43.03;29.80;;;;;;;-0.39;100.00;99675.09;5049859;28;20485;-66
2023/03/08 03:49:02;;;;;;;43.67;29.17;;;;;;;-0.40;100.00;99674.25;5049028;28;20033;-67
2023/03/08 03:51:27;;;;;;;44.57;28.77;;;;;;;-0.39;100.00;99675.09;5048564;28;20017;-67
2023/03/08 03:53:53;;;;;;;45.00;28.57;;;;;;;-0.40;100.00;99679.34;5047304;28;20313;-67
2023/03/08 03:56:23;;;;;;;43.50;30.17;;;;;;;-0.40;100.00;99681.00;5049071;28;20025;-67
2023/03/08 03:58:50;;;;;;;43.95;30.25;;;;;;;-0.42;100.00;99675.81;5048797;28;20116;-67
2023/03/08 04:01:24;;;;;;;50.63;31.47;;;;;;;-0.44;100.00;99662.13;5048515;28;20104;-67
2023/03/08 04:03:50;;;;;;;41.50;28.57;;;;;;;-0.44;100.00;99666.31;5049938;28;20017;-67
2023/03/08 04:06:19;;;;;;;44.37;29.37;;;;;;;-0.44;100.00;99671.41;5048700;28;20031;-67
2023/03/08 04:08:45;;;;;;;44.90;27.70;;;;;;;-0.47;100.00;99656.84;5048620;28;20594;-67
2023/03/08 04:11:15;;;;;;;44.67;28.67;;;;;;;-0.47;100.00;99651.75;5048549;28;20045;-66
2023/03/08 04:13:41;;;;;;;44.90;29.50;;;;;;;-0.47;100.00;99645.78;5061307;28;20488;-66
2023/03/08 04:16:13;;;;;;;43.87;27.07;;;;;;;-0.49;100.00;99649.09;5046632;28;20028;-67
2023/03/08 04:18:38;;;;;;;39.37;26.23;;;;;;;-0.50;100.00;99642.28;5066561;28;20492;-66
2023/03/08 04:21:04;;;;;;;39.73;26.57;;;;;;;-0.47;100.00;99640.69;5067921;28;20033;-67
2023/03/08 04:23:30;;;;;;;38.13;25.97;;;;;;;-0.49;100.00;99636.38;5067426;28;20531;-66
2023/03/08 04:25:55;;;;;;;36.97;25.07;;;;;;;-0.49;100.00;99632.97;5067092;28;20032;-66
2023/03/08 04:28:20;;;;;;;33.70;23.23;;;;;;;-0.51;100.00;99620.16;5067401;28;20012;-66
2023/03/08 04:30:46;;;;;;;38.03;24.37;;;;;;;-0.53;100.00;99615.75;5067884;28;20036;-67
2023/03/08 04:33:11;;;;;;;36.50;24.50;;;;;;;-0.55;100.00;99613.13;5049682;28;20067;-66
2023/03/08 04:35:36;;;;;;;34.90;22.77;;;;;;;-0.52;100.00;99615.84;5048672;28;20036;-67
2023/03/08 04:38:02;;;;;;;35.83;23.53;;;;;;;-0.54;100.00;99607.25;5047813;28;20020;-66
2023/03/08 04:40:28;;;;;;;33.97;23.80;;;;;;;-0.52;100.00;99605.66;5048400;28;20021;-67
2023/03/08 04:42:53;;;;;;;38.07;24.27;;;;;;;-0.51;100.00;99597.25;5047926;28;20086;-67
2023/03/08 04:45:19;;;;;;;33.87;23.93;;;;;;;-0.49;100.00;99602.44;5048280;28;20017;-66
2023/03/08 04:47:44;;;;;;;34.60;23.60;;;;;;;-0.48;100.00;99604.16;5065572;28;20031;-67
2023/03/08 04:50:10;;;;;;;35.00;23.60;;;;;;;-0.51;100.00;99594.72;5067014;28;20086;-66
2023/03/08 04:52:35;;;;;;;35.93;25.17;;;;;;;-0.52;100.00;99587.84;5048998;28;20124;-66
2023/03/08 04:55:00;;;;;;;33.60;22.40;;;;;;;-0.54;100.00;99583.47;5058928;28;20495;-67
2023/03/08 04:57:26;;;;;;;35.20;22.63;;;;;;;-0.54;100.00;99583.47;5049291;28;20017;-66
2023/03/08 04:59:51;;;;;;;35.47;22.73;;;;;;;-0.53;100.00;99581.00;5047423;28;20029;-66
2023/03/08 05:02:16;;;;;;;33.03;21.60;;;;;;;-0.56;100.00;99569.78;5065324;28;20498;-67
2023/03/08 05:04:41;;;;;;;32.00;21.70;;;;;;;-0.55;100.00;99561.34;5066439;28;20050;-66
2023/03/08 05:07:07;;;;;;;32.30;23.03;;;;;;;-0.54;100.00;99552.94;5049644;28;20029;-66
2023/03/08 05:09:32;;;;;;;33.77;22.20;;;;;;;-0.56;100.00;99541.78;5047851;28;20032;-67
2023/03/08 05:11:58;;;;;;;35.57;22.57;;;;;;;-0.58;100.00;99546.78;5051496;28;20389;-67
2023/03/08 05:14:23;;;;;;;32.67;21.60;;;;;;;-0.59;100.00;99549.25;5057046;28;20108;-67
2023/03/08 05:16:48;;;;;;;36.40;24.03;;;;;;;-0.62;100.00;99540.66;5047108;28;20024;-66
2023/03/08 05:19:14;;;;;;;34.80;23.10;;;;;;;-0.61;100.00;99544.06;5048047;28;20106;-66
2023/03/08 05:21:39;;;;;;;32.40;21.53;;;;;;;-0.61;100.00;99537.31;5047428;28;20025;-67
2023/03/08 05:24:05;;;;;;;32.80;20.53;;;;;;;-0.60;100.00;99530.56;5046906;28;20369;-66
2023/03/08 05:26:30;;;;;;;30.80;21.30;;;;;;;-0.60;100.00;99528.00;5047380;28;20104;-67
2023/03/08 05:28:55;;;;;;;33.47;22.17;;;;;;;-0.61;100.00;99521.16;5047619;28;20037;-67
2023/03/08 05:31:21;;;;;;;30.57;19.53;;;;;;;-0.60;100.00;99517.81;5045226;28;20047;-67
2023/03/08 05:33:49;;;;;;;29.47;20.30;;;;;;;-0.59;100.00;99511.06;5043368;28;20025;-67
2023/03/08 05:36:16;;;;;;;32.53;20.33;;;;;;;-0.60;100.00;99502.56;5061311;28;20070;-67
2023/03/08 05:38:41;;;;;;;29.33;19.97;;;;;;;-0.63;100.00;99503.25;5066398;28;20029;-67
2023/03/08 05:41:10;;;;;;;29.57;19.17;;;;;;;-0.62;100.00;99493.94;5060496;28;20033;-67
2023/03/08 05:43:36;;;;;;;28.27;18.27;;;;;;;-0.64;100.00;99491.31;5043333;28;20017;-66
2023/03/08 05:46:07;;;;;;;24.93;16.83;;;;;;;-0.66;100.00;99476.75;5042377;28;20582;-66
2023/03/08 05:48:34;;;;;;;28.50;16.77;;;;;;;-0.66;100.00;99481.84;5043933;28;20025;-67
2023/03/08 05:51:07;;;;;;;22.80;15.60;;;;;;;-0.70;100.00;99468.06;5055737;28;20028;-66
2023/03/08 05:53:33;;;;;;;21.80;15.13;;;;;;;-0.71;100.00;99473.06;5051081;28;20040;-66
2023/03/08 05:56:09;;;;;;;25.40;16.13;;;;;;;-0.71;100.00;99462.91;5066133;28;20484;-66
2023/03/08 05:58:35;;;;;;;24.40;16.07;;;;;;;-0.76;100.00;99466.09;5065565;28;20029;-66
2023/03/08 06:01:08;;;;;;;24.60;16.27;;;;;;;-0.79;100.00;99455.72;5062287;28;20031;-66
2023/03/08 06:03:33;;;;;;;22.67;15.30;;;;;;;-0.82;100.00;99455.56;5057593;28;20044;-66
2023/03/08 06:05:58;;;;;;;21.60;14.00;;;;;;;-0.83;100.00;99440.19;5062398;28;20024;-66
2023/03/08 06:08:24;;;;;;;23.77;13.97;;;;;;;-0.84;100.00;99439.31;5061283;28;20048;-66
2023/03/08 06:10:49;;;;;;;20.17;13.10;;;;;;;-0.87;100.00;99451.88;5061781;28;20077;-66
2023/03/08 06:13:14;;;;;;;19.70;12.73;;;;;;;-0.92;100.00;99443.13;5055718;28;20167;-66
2023/03/08 06:15:39;;;;;;;20.07;13.10;;;;;;;-0.93;100.00;99441.34;5064852;28;20025;-66
2023/03/08 06:18:05;;;;;;;23.07;14.00;;;;;;;-0.95;100.00;99441.25;5056392;28;20032;-66
2023/03/08 06:20:30;;;;;;;19.53;12.37;;;;;;;-0.97;100.00;99441.19;5061675;28;20032;-66
2023/03/08 06:22:55;;;;;;;15.17;10.00;;;;;;;-1.01;100.00;99444.34;5048181;28;20025;-66
2023/03/08 06:25:20;;;;;;;20.03;11.77;;;;;;;-1.03;100.00;99434.88;5033295;28;20029;-66
2023/03/08 06:27:46;;;;;;;16.23;10.13;;;;;;;-1.04;100.00;99434.00;5042390;28;20025;-66
2023/03/08 06:30:12;;;;;;;14.87;10.47;;;;;;;-1.07;100.00;99435.50;5051631;28;20034;-66
2023/03/08 06:32:37;;;;;;;11.07;8.40;;;;;;;-1.13;100.00;99433.47;5050560;28;20091;-66
2023/03/08 06:35:03;;;;;;;14.83;9.97;;;;;;;-1.14;100.00;99431.72;5042449;28;20032;-66
2023/03/08 06:37:32;;;;;;;14.60;8.90;;;;;;;-1.17;100.00;99442.59;5035752;28;20056;-66
2023/03/08 06:39:57;;;;;;;15.27;10.07;;;;;;;-1.16;100.00;99430.75;5038324;28;20052;-66
2023/03/08 06:42:23;;;;;;;15.10;9.13;;;;;;;-1.23;100.00;99430.44;5052336;28;20054;-66
2023/03/08 06:44:48;;;;;;;13.23;9.00;;;;;;;-1.27;100.00;99425.94;5058259;28;20033;-66
2023/03/08 06:47:13;;;;;;;13.80;9.77;;;;;;;-1.24;100.00;99422.72;5047335;28;20049;-66
2023/03/08 06:49:39;;;;;;;15.63;10.73;;;;;;;-1.24;100.00;99431.19;5045199;28;20027;-66
2023/03/08 06:52:04;;;;;;;17.10;10.90;;;;;;;-1.29;100.00;99427.53;5048989;28;20365;-66
2023/03/08 06:54:29;;;;;;;12.73;7.50;;;;;;;-1.28;100.00;99429.28;5057822;28;20019;-66
2023/03/08 06:56:55;;;;;;;10.43;7.80;;;;;;;-1.30;100.00;99432.53;5047889;28;20071;-67
2023/03/08 06:59:20;;;;;;;10.93;7.47;;;;;;;-1.30;100.00;99435.94;5057334;28;20043;-66
2023/03/08 07:01:45;;;;;;;10.33;7.33;;;;;;;-1.30;100.00;99430.88;5067330;28;20035;-66
2023/03/08 07:04:11;;;;;;;12.43;6.30;;;;;;;-1.32;100.00;99427.34;5069583;28;20012;-66
2023/03/08 07:06:36;;;;;;;10.23;6.60;;;;;;;-1.35;100.00;99424.66;5068785;28;20083;-66
2023/03/08 07:09:01;;;;;;;8.60;6.33;;;;;;;-1.36;100.00;99423.75;5069291;28;20028;-66
2023/03/08 07:11:28;;;;;;;9.13;6.73;;;;;;;-1.33;100.00;99425.59;5068976;28;20164;-66
2023/03/08 07:13:53;;;;;;;12.17;6.17;;;;;;;-1.31;100.00;99413.84;5068677;28;20032;-66
2023/03/08 07:16:19;;;;;;;9.43;4.97;;;;;;;-1.35;100.00;99411.94;5069492;28;20020;-66
2023/03/08 07:18:44;;;;;;;8.20;5.53;;;;;;;-1.42;100.00;99409.84;5063128;28;20021;-66
2023/03/08 07:21:09;;;;;;;7.20;5.50;;;;;;;-1.41;100.00;99406.47;5049467;28;20100;-66
2023/03/08 07:23:35;;;;;;;6.83;4.87;;;;;;;-1.42;100.00;99409.84;5054988;28;20096;-66
2023/03/08 07:26:05;;;;;;;8.43;5.57;;;;;;;-1.41;100.00;99406.47;5068520;28;20024;-66
2023/03/08 07:28:30;;;;;;;8.67;5.10;;;;;;;-1.42;100.00;99395.44;5049110;28;20485;-66
2023/03/08 07:30:55;;;;;;;8.77;5.33;;;;;;;-1.43;100.00;99402.97;5048500;28;20035;-66
2023/03/08 07:33:21;;;;;;;6.97;4.63;;;;;;;-1.46;100.00;99399.47;5048991;28;20392;-66
2023/03/08 07:35:46;;;;;;;9.07;5.80;;;;;;;-1.50;100.00;99387.38;5061706;28;20024;-66
2023/03/08 07:38:12;;;;;;;7.57;5.67;;;;;;;-1.50;100.00;99391.59;5068307;28;20516;-66
2023/03/08 07:40:38;;;;;;;9.27;6.00;;;;;;;-1.53;100.00;99382.09;5068699;28;20504;-67
2023/03/08 07:43:03;;;;;;;6.87;5.03;;;;;;;-1.54;100.00;99380.38;5068094;28;20028;-67
2023/03/08 07:45:29;;;;;;;10.23;6.37;;;;;;;-1.50;100.00;99374.69;5055618;28;20102;-66
2023/03/08 07:47:54;;;;;;;8.57;6.47;;;;;;;-1.46;100.00;99379.13;5054974;28;20035;-66
2023/03/08 07:50:20;;;;;;;10.53;6.60;;;;;;;-1.44;100.00;99371.63;5068242;28;20024;-66
2023/03/08 07:52:46;;;;;;;9.63;6.90;;;;;;;-1.41;100.00;99370.91;5048893;28;20044;-66
2023/03/08 07:55:12;;;;;;;13.23;7.67;;;;;;;-1.41;100.00;99365.81;5048822;28;20406;-66
2023/03/08 07:57:37;;;;;;;11.73;8.10;;;;;;;-1.42;100.00;99371.69;5047976;28;20035;-66
2023/03/08 08:00:07;;;;;;;12.17;8.37;;;;;;;-1.42;100.00;99366.63;5048651;28;20036;-66
2023/03/08 08:02:33;;;;;;;13.27;9.20;;;;;;;-1.42;100.00;99364.94;5049245;28;20432;-66
2023/03/08 08:04:59;;;;;;;13.40;9.30;;;;;;;-1.37;100.00;99352.50;5048944;28;20051;-66
2023/03/08 08:07:24;;;;;;;16.90;9.87;;;;;;;-1.36;100.00;99354.25;5048107;28;20021;-66
2023/03/08 08:09:50;;;;;;;15.93;11.00;;;;;;;-1.35;100.00;99350.94;5047801;28;20038;-66
2023/03/08 08:12:15;;;;;;;15.73;11.77;;;;;;;-1.35;100.00;99356.00;5053228;28;20099;-66
2023/03/08 08:14:40;;;;;;;14.57;11.07;;;;;;;-1.32;100.00;99356.19;5055804;28;20035;-66
2023/03/08 08:17:05;;;;;;;15.63;11.47;;;;;;;-1.34;100.00;99350.13;5066983;28;20024;-66
2023/03/08 08:19:31;;;;;;;16.67;12.07;;;;;;;-1.32;100.00;99346.00;5067880;28;20016;-66
2023/03/08 08:21:56;;;;;;;15.93;11.27;;;;;;;-1.30;100.00;99344.44;5066030;28;20025;-66
2023/03/08 08:24:21;;;;;;;14.97;10.97;;;;;;;-1.34;100.00;99342.50;5067944;28;20035;-66
2023/03/08 08:26:47;;;;;;;13.83;10.00;;;;;;;-1.31;100.00;99331.63;5067445;28;20103;-66
2023/03/08 08:29:12;;;;;;;17.13;9.27;;;;;;;-1.30;100.00;99320.66;5068063;28;20036;-66
2023/03/08 08:31:37;;;;;;;12.93;9.07;;;;;;;-1.33;100.00;99318.81;5067175;28;20032;-66
2023/03/08 08:34:03;;;;;;;11.40;8.53;;;;;;;-1.33;100.00;99326.44;5067004;28;20081;-66
2023/03/08 08:36:28;;;;;;;10.47;7.90;;;;;;;-1.30;100.00;99313.03;5066047;28;20021;-66
2023/03/08 08:38:54;;;;;;;13.20;8.83;;;;;;;-1.32;100.00;99315.50;5066932;28;20121;-66
2023/03/08 08:41:20;;;;;;;12.20;8.67;;;;;;;-1.29;100.00;99314.78;5064870;28;20025;-66
2023/03/08 08:43:47;;;;;;;10.60;8.47;;;;;;;-1.29;100.00;99295.31;5066514;28;20031;-66
2023/03/08 08:46:14;;;;;;;8.93;7.57;;;;;;;-1.27;100.00;99288.66;5064620;28;20020;-66
2023/03/08 08:48:41;;;;;;;11.03;7.67;;;;;;;-1.25;100.00;99297.25;5064821;28;20032;-66
2023/03/08 08:51:07;;;;;;;8.80;6.87;;;;;;;-1.25;100.00;99298.91;5061958;28;20031;-66
2023/03/08 08:53:33;;;;;;;7.70;6.30;;;;;;;-1.28;100.00;99312.34;5065504;28;20447;-66
2023/03/08 08:55:58;;;;;;;9.63;6.53;;;;;;;-1.26;100.00;99312.44;5063601;28;20016;-66
2023/03/08 08:58:24;;;;;;;7.43;6.57;;;;;;;-1.24;100.00;99311.72;5065977;28;20468;-66
2023/03/08 09:00:50;;;;;;;8.07;6.67;;;;;;;-1.19;100.00;99322.16;5061698;28;20024;-66
2023/03/08 09:03:16;;;;;;;12.77;8.03;;;;;;;-1.14;100.00;99332.56;5066010;28;20028;-66
2023/03/08 09:05:43;;;;;;;11.93;8.23;;;;;;;-1.07;100.00;99332.09;5063695;28;20024;-66
2023/03/08 09:08:10;;;;;;;10.60;8.03;;;;;;;-1.06;100.00;99333.00;5063808;28;20404;-66
2023/03/08 09:10:37;;;;;;;10.67;7.67;;;;;;;-1.06;100.00;99333.00;5063493;28;20025;-66
2023/03/08 09:13:03;;;;;;;8.60;6.83;;;;;;;-1.07;100.00;99331.22;5065753;28;20028;-66
2023/03/08 09:15:29;;;;;;;10.23;6.33;;;;;;;-1.07;100.00;99324.47;5047965;28;20760;-66
2023/03/08 09:17:54;;;;;;;9.27;7.10;;;;;;;-1.11;100.00;99308.19;5047963;28;20106;-66
2023/03/08 09:20:20;;;;;;;10.47;7.57;;;;;;;-1.13;100.00;99294.50;5048565;28;20016;-66
2023/03/08 09:22:46;;;;;;;11.57;8.83;;;;;;;-1.12;100.00;99280.13;5047830;28;20481;-66
2023/03/08 09:25:12;;;;;;;8.63;7.30;;;;;;;-1.18;100.00;99272.16;5047698;28;20020;-66
2023/03/08 09:27:38;;;;;;;8.63;7.17;;;;;;;-1.19;100.00;99281.47;5047802;28;20029;-66
2023/03/08 09:30:07;;;;;;;10.30;7.20;;;;;;;-1.21;100.00;99262.72;5047945;28;20025;-66
2023/03/08 09:32:33;;;;;;;10.57;7.57;;;;;;;-1.16;100.00;99252.78;5047643;28;20029;-66
2023/03/08 09:34:58;;;;;;;9.73;6.77;;;;;;;-1.16;100.00;99245.16;5048747;28;20480;-66
2023/03/08 09:37:24;;;;;;;13.10;7.00;;;;;;;-1.13;100.00;99250.38;5048034;28;20033;-67
2023/03/08 09:39:50;;;;;;;8.33;5.70;;;;;;;-1.09;100.00;99257.41;5048132;28;20025;-66
2023/03/08 09:42:21;;;;;;;7.10;5.90;;;;;;;-1.05;100.00;99244.06;5047993;28;20051;-66
2023/03/08 09:45:05;;;;;;;9.85;7.25;;;;;;;-1.01;100.00;99245.94;5047610;28;20369;-66
2023/03/08 09:47:40;;;;;;;9.47;7.90;;;;;;;-1.01;100.00;99247.66;5049226;28;20025;-66
2023/03/08 09:50:20;;;;;;;8.73;7.33;;;;;;;-0.95;100.00;99235.22;5047749;28;20036;-66
2023/03/08 09:52:51;;;;;;;10.47;9.13;;;;;;;-0.88;100.00;99231.38;5049364;28;20084;-66
2023/03/08 09:55:29;;;;;;;12.20;10.23;;;;;;;-0.92;100.00;99239.63;5051941;28;20025;-66
2023/03/08 09:58:03;;;;;;;14.40;10.40;;;;;;;-0.87;100.00;99233.09;5039911;28;20084;-66
2023/03/08 10:00:35;;;;;;;13.93;11.73;;;;;;;-0.80;100.00;99240.25;5051391;28;20028;-66
2023/03/08 10:03:25;;;;;;;15.17;12.33;;;;;;;-0.76;100.00;99229.47;5051412;28;20021;-66
2023/03/08 10:06:19;;;;;;;17.30;12.67;;;;;;;-0.73;100.00;99218.56;5051066;28;20025;-66
2023/03/08 10:09:40;;;;;;;15.97;13.13;;;;;;;-0.66;100.00;99207.00;5052387;28;20387;-66
2023/03/08 10:12:13;;;;;;;17.08;13.73;;;;;;;-0.55;100.00;99212.66;5054187;28;20024;-66
2023/03/08 10:14:44;;;;;;;20.07;14.60;;;;;;;-0.50;100.00;99224.81;5070403;28;20515;-66
2023/03/08 10:17:19;;;;;;;17.05;14.30;;;;;;;-0.45;100.00;99234.38;5070154;28;20415;-66
2023/03/08 10:19:54;;;;;;;16.37;14.23;;;;;;;-0.38;100.00;99238.97;5069751;28;20066;-66
2023/03/08 10:22:33;;;;;;;15.60;13.80;;;;;;;-0.35;100.00;99231.47;5070059;28;20028;-66
2023/03/08 10:25:37;;;;;;;15.60;13.20;;;;;;;-0.32;100.00;99218.00;5068344;28;20170;-66
2023/03/08 10:28:11;;;;;;;18.00;14.10;;;;;;;-0.31;100.00;99210.47;5063744;28;20250;-66
2023/03/08 10:30:41;;;;;;;16.43;14.60;;;;;;;-0.31;100.00;99212.16;5047060;28;20025;-66
2023/03/08 10:33:10;;;;;;;16.42;13.55;;;;;;;-0.29;100.00;99208.84;5042107;28;20374;-66
2023/03/08 10:36:04;;;;;;;19.47;16.53;;;;;;;-0.25;100.00;99214.97;5049909;28;20469;-66
2023/03/08 10:38:33;;;;;;;18.20;15.20;;;;;;;-0.23;100.00;99217.63;5050563;28;20013;-66
2023/03/08 10:41:13;;;;;;;17.30;14.97;;;;;;;-0.22;100.00;99219.38;5048441;28;20016;-66
2023/03/08 10:43:44;;;;;;;19.40;16.17;;;;;;;-0.21;100.00;99211.78;5050345;28;20017;-66
2023/03/08 10:46:13;;;;;;;19.27;16.70;;;;;;;-0.20;100.00;99194.84;5050301;28;20035;-66
2023/03/08 10:48:39;;;;;;;20.03;16.60;;;;;;;-0.20;100.00;99179.56;5050672;28;20032;-66
2023/03/08 10:51:06;;;;;;;20.03;17.20;;;;;;;-0.21;100.00;99180.34;5049133;28;20538;-66
2023/03/08 10:53:32;;;;;;;20.93;18.13;;;;;;;-0.21;100.00;99188.88;5051019;28;20032;-66
2023/03/08 10:56:00;;;;;;;18.03;16.17;;;;;;;-0.24;100.00;99193.81;5050101;28;20096;-66
2023/03/08 10:58:34;;;;;;;19.10;16.00;;;;;;;-0.35;100.00;99192.41;5050238;28;20036;-66
2023/03/08 11:01:03;;;;;;;17.77;15.87;;;;;;;-0.33;100.00;99191.69;5037901;28;20055;-66
2023/03/08 11:03:29;;;;;;;17.33;15.53;;;;;;;-0.34;100.00;99189.94;5049733;28;20009;-66
2023/03/08 11:06:12;;;;;;;20.20;17.10;;;;;;;-0.27;100.00;99203.88;5048864;28;20025;-66
2023/03/08 11:08:49;;;;;;;19.33;15.47;;;;;;;-0.23;100.00;99207.44;5049830;28;20052;-66
2023/03/08 11:11:15;;;;;;;18.27;15.50;;;;;;;-0.18;100.00;99208.53;5049810;28;20025;-66
2023/03/08 11:13:45;;;;;;;16.87;15.07;;;;;;;-0.16;100.00;99209.47;5062817;28;20466;-66